Time;durP1;ratioP1;P1;durP2;ratioP2;P2;SDS_P1;SDS_P2;PMS_P1;PMS_P2;Temp;Humidity;BMP_temperature;BMP_pressure;BME280_temperature;BME280_humidity;BME280_pressure;Samples;Min_cycle;Max_cycle;Signal;HPM_P1;HPM_P2
2023/07/27 00:01:00;;;;;;;8.70;5.15;;;15.00;99.90;;;;;;4991802;28;20517;-69
2023/07/27 00:03:26;;;;;;;10.75;5.43;;;15.00;99.90;;;;;;5008844;28;20385;-69
2023/07/27 00:05:52;;;;;;;7.70;4.85;;;15.00;99.90;;;;;;5043182;28;20105;-69
2023/07/27 00:08:17;;;;;;;8.38;4.78;;;15.00;99.90;;;;;;4970225;28;20046;-69
2023/07/27 00:10:43;;;;;;;7.38;5.03;;;15.00;99.90;;;;;;4963500;28;20082;-69
2023/07/27 00:13:09;;;;;;;8.63;5.00;;;15.00;99.90;;;;;;4977143;28;20042;-69
2023/07/27 00:15:34;;;;;;;8.18;4.80;;;15.00;99.90;;;;;;4986685;28;20050;-69
2023/07/27 00:18:00;;;;;;;8.00;5.22;;;15.00;99.90;;;;;;4985913;28;20085;-69
2023/07/27 00:20:26;;;;;;;7.40;4.80;;;15.10;99.90;;;;;;5007596;28;20446;-69
2023/07/27 00:22:51;;;;;;;14.20;5.20;;;15.10;99.90;;;;;;4963934;28;20049;-69
2023/07/27 00:25:17;;;;;;;7.72;5.07;;;15.10;99.90;;;;;;4966465;28;20073;-69
2023/07/27 00:27:43;;;;;;;8.73;4.70;;;15.10;99.90;;;;;;4965286;28;20034;-69
2023/07/27 00:30:09;;;;;;;9.65;5.30;;;15.10;99.90;;;;;;4969822;28;20042;-69
2023/07/27 00:32:34;;;;;;;9.75;5.38;;;15.10;99.90;;;;;;4967862;28;20046;-69
2023/07/27 00:35:00;;;;;;;8.77;5.00;;;15.10;99.90;;;;;;4953458;28;20045;-69
2023/07/27 00:37:26;;;;;;;9.52;5.22;;;15.10;99.90;;;;;;4953454;28;20039;-69
2023/07/27 00:39:51;;;;;;;9.02;5.25;;;15.10;99.90;;;;;;4962661;28;20092;-69
2023/07/27 00:42:17;;;;;;;8.18;5.22;;;15.10;99.90;;;;;;4978837;28;20077;-69
2023/07/27 00:44:43;;;;;;;8.68;5.63;;;15.10;99.90;;;;;;4981206;28;20312;-69
2023/07/27 00:47:08;;;;;;;7.55;5.35;;;15.10;99.90;;;;;;4984518;28;20456;-69
2023/07/27 00:49:34;;;;;;;9.18;5.28;;;15.10;99.90;;;;;;4958120;28;20043;-69
2023/07/27 00:52:05;;;;;;;8.70;5.45;;;15.10;99.90;;;;;;4985507;28;20046;-70
2023/07/27 00:54:32;;;;;;;8.30;5.55;;;15.10;99.90;;;;;;4979190;28;20503;-69
2023/07/27 00:56:57;;;;;;;9.75;5.60;;;15.10;99.90;;;;;;4966554;28;20058;-69
2023/07/27 00:59:23;;;;;;;10.63;5.88;;;15.10;99.90;;;;;;4988194;28;20034;-69
2023/07/27 01:01:49;;;;;;;9.93;5.35;;;15.10;99.90;;;;;;5051077;28;20112;-70
2023/07/27 01:04:15;;;;;;;9.18;5.07;;;15.10;99.90;;;;;;4969301;28;20035;-69
2023/07/27 01:06:41;;;;;;;8.65;5.20;;;15.10;99.90;;;;;;4950980;28;20046;-69
2023/07/27 01:09:07;;;;;;;7.63;5.35;;;15.10;99.90;;;;;;5008584;28;20070;-69
2023/07/27 01:11:51;;;;;;;8.27;5.47;;;15.10;99.90;;;;;;4995423;28;20077;-69
2023/07/27 01:14:35;;;;;;;10.20;5.28;;;15.10;99.90;;;;;;4975540;28;20049;-69
2023/07/27 01:17:16;;;;;;;11.00;5.60;;;15.00;99.90;;;;;;4940344;28;20037;-69
2023/07/27 01:20:07;;;;;;;9.18;5.60;;;15.00;99.90;;;;;;4958692;28;20038;-69
2023/07/27 01:22:33;;;;;;;9.18;5.63;;;15.00;99.90;;;;;;4971791;28;20034;-69
2023/07/27 01:25:34;;;;;;;8.30;5.63;;;15.00;99.90;;;;;;4998553;28;20406;-69
2023/07/27 01:28:19;;;;;;;8.98;5.68;;;15.00;99.90;;;;;;4997030;28;20038;-69
2023/07/27 01:30:54;;;;;;;8.73;5.60;;;15.00;99.90;;;;;;4961834;28;20039;-69
2023/07/27 01:33:32;;;;;;;7.53;5.13;;;15.00;99.90;;;;;;4978089;28;20088;-69
2023/07/27 01:36:34;;;;;;;8.48;5.90;;;14.90;99.90;;;;;;4978459;28;20039;-69
2023/07/27 01:39:03;;;;;;;8.93;5.75;;;14.90;99.90;;;;;;4977830;28;20038;-69
2023/07/27 01:41:30;;;;;;;7.93;5.10;;;14.90;99.90;;;;;;4994129;28;20049;-69
2023/07/27 01:43:57;;;;;;;10.00;5.82;;;14.90;99.90;;;;;;4984229;28;20065;-69
2023/07/27 01:46:24;;;;;;;10.52;6.03;;;14.90;99.90;;;;;;4988865;28;20042;-69
2023/07/27 01:48:51;;;;;;;8.40;5.80;;;14.90;99.90;;;;;;5010159;28;20042;-69
2023/07/27 01:51:19;;;;;;;8.68;5.72;;;14.90;99.90;;;;;;4980446;28;20507;-69
2023/07/27 01:53:47;;;;;;;9.13;5.78;;;14.90;99.90;;;;;;5056177;28;20054;-69
2023/07/27 01:56:13;;;;;;;9.95;5.57;;;14.90;99.90;;;;;;4974208;28;20054;-69
2023/07/27 01:58:41;;;;;;;9.82;5.88;;;14.80;99.90;;;;;;4982903;28;20042;-69
2023/07/27 02:01:07;;;;;;;11.23;6.05;;;14.90;99.90;;;;;;4988393;28;20047;-69
2023/07/27 02:03:34;;;;;;;8.35;6.00;;;14.90;99.90;;;;;;4971925;28;20491;-69
2023/07/27 02:06:00;;;;;;;9.20;6.05;;;14.90;99.90;;;;;;4966796;28;20050;-69
2023/07/27 02:08:26;;;;;;;10.75;6.15;;;14.80;99.90;;;;;;4956493;28;20038;-69
2023/07/27 02:11:03;;;;;;;10.77;5.85;;;14.90;99.90;;;;;;4962933;28;20045;-69
2023/07/27 02:13:55;;;;;;;10.57;5.88;;;14.90;99.90;;;;;;4965304;28;20123;-69
2023/07/27 02:16:44;;;;;;;9.37;5.77;;;14.80;99.90;;;;;;4994520;28;20035;-69
2023/07/27 02:19:12;;;;;;;9.07;5.32;;;14.90;99.90;;;;;;4970027;28;20484;-69
2023/07/27 02:21:38;;;;;;;7.90;5.38;;;14.90;99.90;;;;;;4960573;28;20503;-69
2023/07/27 02:24:05;;;;;;;10.18;6.00;;;14.90;99.90;;;;;;4977571;28;20042;-69
2023/07/27 02:26:31;;;;;;;8.88;5.82;;;14.90;99.90;;;;;;4971614;28;20518;-69
2023/07/27 02:28:58;;;;;;;9.98;5.90;;;14.90;99.90;;;;;;4989211;28;20038;-69
2023/07/27 02:31:24;;;;;;;10.98;5.60;;;14.80;99.90;;;;;;4979362;28;20046;-70
2023/07/27 02:33:50;;;;;;;10.32;6.13;;;14.90;99.90;;;;;;4969720;28;20093;-69
2023/07/27 02:36:15;;;;;;;9.90;6.10;;;14.80;99.90;;;;;;4954556;28;20501;-70
2023/07/27 02:38:41;;;;;;;10.27;5.90;;;14.80;99.90;;;;;;5053858;28;20380;-69
2023/07/27 02:41:09;;;;;;;11.93;6.50;;;14.80;99.90;;;;;;4987387;28;20140;-70
2023/07/27 02:43:35;;;;;;;10.63;6.20;;;14.80;99.90;;;;;;4957137;28;20126;-70
2023/07/27 02:46:01;;;;;;;9.82;5.97;;;14.70;99.90;;;;;;4983516;28;20125;-70
2023/07/27 02:48:27;;;;;;;10.25;7.03;;;14.70;99.90;;;;;;4978894;28;20042;-69
2023/07/27 02:50:53;;;;;;;11.38;6.55;;;14.70;99.90;;;;;;5000494;28;20453;-70
2023/07/27 02:53:19;;;;;;;11.73;6.93;;;14.70;99.90;;;;;;4970396;28;20084;-70
2023/07/27 02:56:01;;;;;;;9.52;6.88;;;14.60;99.90;;;;;;4963346;28;20070;-71
2023/07/27 02:58:27;;;;;;;10.93;7.30;;;14.60;99.90;;;;;;4963549;28;20123;-72
2023/07/27 03:01:03;;;;;;;10.43;6.68;;;14.60;99.90;;;;;;4967240;28;20045;-72
2023/07/27 03:03:29;;;;;;;12.98;7.35;;;14.50;99.90;;;;;;4973983;28;20038;-73
2023/07/27 03:06:02;;;;;;;11.25;7.22;;;14.50;99.90;;;;;;4963787;28;20085;-73
2023/07/27 03:08:29;;;;;;;9.88;6.78;;;14.50;99.90;;;;;;4993932;28;20117;-73
2023/07/27 03:10:59;;;;;;;13.10;7.25;;;14.50;99.90;;;;;;4981298;28;20039;-73
2023/07/27 03:13:25;;;;;;;11.90;7.20;;;14.50;99.90;;;;;;4984754;28;20432;-73
2023/07/27 03:15:51;;;;;;;15.25;7.40;;;14.50;99.90;;;;;;4984623;28;20121;-73
2023/07/27 03:18:17;;;;;;;12.85;7.65;;;14.50;99.90;;;;;;4984658;28;20047;-73
2023/07/27 03:20:43;;;;;;;11.90;7.68;;;14.50;99.90;;;;;;4983077;28;20042;-73
2023/07/27 03:23:09;;;;;;;10.80;7.20;;;14.50;99.90;;;;;;4964751;28;20043;-73
2023/07/27 03:25:36;;;;;;;11.60;7.85;;;14.50;99.90;;;;;;4969639;28;20052;-73
2023/07/27 03:28:05;;;;;;;12.77;7.22;;;14.50;99.90;;;;;;4956028;28;20042;-73
2023/07/27 03:30:31;;;;;;;13.60;7.85;;;14.50;99.90;;;;;;4984997;28;20035;-73
2023/07/27 03:32:56;;;;;;;12.55;7.82;;;14.50;99.90;;;;;;4987466;28;20034;-73
2023/07/27 03:35:22;;;;;;;10.10;7.13;;;14.40;99.90;;;;;;4962450;28;20372;-73
2023/07/27 03:37:50;;;;;;;13.15;7.50;;;14.50;99.90;;;;;;4970748;28;20479;-73
2023/07/27 03:40:15;;;;;;;11.65;7.57;;;14.50;99.90;;;;;;4971985;28;20392;-73
2023/07/27 03:42:41;;;;;;;11.48;7.18;;;14.50;99.90;;;;;;4960826;28;20091;-73
2023/07/27 03:45:07;;;;;;;14.63;8.05;;;14.50;99.90;;;;;;4966131;28;20122;-73
2023/07/27 03:47:33;;;;;;;12.82;7.53;;;14.50;99.90;;;;;;4962564;28;20039;-72
2023/07/27 03:49:58;;;;;;;14.10;8.00;;;14.50;99.90;;;;;;4980691;28;20037;-73
2023/07/27 03:52:24;;;;;;;10.38;7.05;;;14.50;99.90;;;;;;4963154;28;20055;-72
2023/07/27 03:54:50;;;;;;;12.63;7.22;;;14.50;99.90;;;;;;4992241;28;20308;-72
2023/07/27 03:57:15;;;;;;;9.35;6.75;;;14.50;99.90;;;;;;4952083;28;20183;-72
2023/07/27 03:59:41;;;;;;;11.25;7.38;;;14.50;99.90;;;;;;5004248;28;20065;-72
2023/07/27 04:02:06;;;;;;;11.77;7.55;;;14.40;99.90;;;;;;4985818;28;20121;-73
2023/07/27 04:04:32;;;;;;;13.40;7.50;;;14.50;99.90;;;;;;4975761;28;20034;-72
2023/07/27 04:06:58;;;;;;;11.10;7.25;;;14.50;99.90;;;;;;4977721;28;20115;-73
2023/07/27 04:09:23;;;;;;;11.98;7.47;;;14.40;99.90;;;;;;4958830;28;20046;-72
2023/07/27 04:11:49;;;;;;;10.43;7.40;;;14.50;99.90;;;;;;4968392;28;20047;-73
2023/07/27 04:14:15;;;;;;;11.38;7.72;;;14.50;99.90;;;;;;5005301;28;20423;-72
2023/07/27 04:16:41;;;;;;;10.65;7.15;;;14.50;99.90;;;;;;4993034;28;20038;-73
2023/07/27 04:19:06;;;;;;;12.32;8.10;;;14.50;99.90;;;;;;5020825;23;20034;-71
2023/07/27 04:21:32;;;;;;;11.20;7.65;;;14.40;99.90;;;;;;5002476;28;20402;-71
2023/07/27 04:23:58;;;;;;;11.65;7.40;;;14.50;99.90;;;;;;4998737;28;20404;-69
2023/07/27 04:26:23;;;;;;;11.40;7.20;;;14.50;99.90;;;;;;5009769;28;20130;-69
2023/07/27 04:28:49;;;;;;;11.07;7.55;;;14.50;99.90;;;;;;4985306;28;20127;-71
2023/07/27 04:31:14;;;;;;;11.18;7.60;;;14.50;99.90;;;;;;4980550;28;20095;-71
2023/07/27 04:33:40;;;;;;;10.45;6.88;;;14.50;99.90;;;;;;5004083;28;20549;-70
2023/07/27 04:36:06;;;;;;;11.48;7.43;;;14.50;99.90;;;;;;4999154;28;20074;-69
2023/07/27 04:38:31;;;;;;;10.20;7.00;;;14.50;99.90;;;;;;5009359;28;20038;-71
2023/07/27 04:40:58;;;;;;;9.95;6.65;;;14.60;99.90;;;;;;4970622;28;20411;-71
2023/07/27 04:43:24;;;;;;;9.30;6.90;;;14.60;99.90;;;;;;5001410;28;20042;-68
2023/07/27 04:45:50;;;;;;;9.95;6.68;;;14.60;99.90;;;;;;4998720;28;20476;-71
2023/07/27 04:48:15;;;;;;;8.98;6.85;;;14.60;99.90;;;;;;4985494;28;20054;-71
2023/07/27 04:50:41;;;;;;;10.65;6.53;;;14.70;99.90;;;;;;4991256;28;20042;-71
2023/07/27 04:53:06;;;;;;;9.23;6.00;;;14.70;99.90;;;;;;4990278;28;20116;-70
2023/07/27 04:55:32;;;;;;;9.93;6.40;;;14.70;99.90;;;;;;5005974;28;20038;-67
2023/07/27 04:57:58;;;;;;;9.05;5.75;;;14.80;99.90;;;;;;5009366;28;20030;-68
2023/07/27 05:00:24;;;;;;;10.05;5.78;;;14.80;99.90;;;;;;5011074;28;20041;-71
2023/07/27 05:02:50;;;;;;;8.23;5.68;;;14.80;99.90;;;;;;5007479;28;20526;-71
2023/07/27 05:05:15;;;;;;;8.43;5.25;;;14.80;99.90;;;;;;4991349;28;20041;-70
2023/07/27 05:07:41;;;;;;;7.40;5.10;;;14.80;99.90;;;;;;4989697;28;20041;-70
2023/07/27 05:10:07;;;;;;;11.00;5.55;;;14.90;99.90;;;;;;5009622;28;20106;-70
2023/07/27 05:12:33;;;;;;;7.90;5.28;;;14.90;99.90;;;;;;4993230;28;20472;-70
2023/07/27 05:14:59;;;;;;;8.93;5.50;;;14.90;99.90;;;;;;4986898;28;20044;-70
2023/07/27 05:17:25;;;;;;;9.05;5.25;;;14.90;99.90;;;;;;5004087;28;20073;-69
2023/07/27 05:19:53;;;;;;;7.90;5.40;;;14.90;99.90;;;;;;5004329;28;20043;-71
2023/07/27 05:22:19;;;;;;;8.13;5.07;;;14.90;99.90;;;;;;5000302;28;20049;-71
2023/07/27 05:24:44;;;;;;;9.35;5.85;;;14.90;99.90;;;;;;4992227;28;20117;-71
2023/07/27 05:27:10;;;;;;;7.95;5.60;;;14.90;99.90;;;;;;4992616;28;20440;-73
2023/07/27 05:29:36;;;;;;;8.10;5.82;;;14.90;99.90;;;;;;4979388;28;20164;-73
2023/07/27 05:32:01;;;;;;;9.60;5.90;;;14.90;99.90;;;;;;4983943;28;20073;-72
2023/07/27 05:34:27;;;;;;;10.43;6.18;;;14.90;99.90;;;;;;5009194;28;20390;-73
2023/07/27 05:36:53;;;;;;;8.85;6.32;;;14.90;99.90;;;;;;5012764;28;20061;-73
2023/07/27 05:39:19;;;;;;;10.68;6.43;;;14.90;99.90;;;;;;4991700;28;20330;-73
2023/07/27 05:41:44;;;;;;;13.02;6.95;;;15.00;99.90;;;;;;5004605;28;20049;-73
2023/07/27 05:44:10;;;;;;;9.40;6.45;;;14.90;99.90;;;;;;4982163;28;20381;-72
2023/07/27 05:46:35;;;;;;;9.88;6.50;;;15.00;99.90;;;;;;4987564;28;20476;-71
2023/07/27 05:49:01;;;;;;;14.90;7.03;;;15.00;99.90;;;;;;4982873;28;20038;-73
2023/07/27 05:51:27;;;;;;;12.10;7.53;;;14.90;99.90;;;;;;4990527;28;20046;-73
2023/07/27 05:53:52;;;;;;;11.55;7.22;;;15.00;99.90;;;;;;5005023;28;20038;-72
2023/07/27 05:56:18;;;;;;;11.68;7.82;;;15.00;99.90;;;;;;5012092;28;20054;-72
2023/07/27 05:58:44;;;;;;;13.23;8.85;;;15.00;99.90;;;;;;5007342;28;20037;-73
2023/07/27 06:01:09;;;;;;;10.73;7.50;;;15.00;99.90;;;;;;5007521;28;20081;-73
2023/07/27 06:03:35;;;;;;;10.13;7.80;;;15.00;99.90;;;;;;4989529;28;21013;-73
2023/07/27 06:06:01;;;;;;;12.48;9.25;;;15.00;99.90;;;;;;5004499;28;20030;-73
2023/07/27 06:08:27;;;;;;;13.57;8.52;;;15.00;99.90;;;;;;4984051;28;20045;-73
2023/07/27 06:11:04;;;;;;;12.60;8.63;;;15.00;99.90;;;;;;5006356;28;20394;-73
2023/07/27 06:13:31;;;;;;;11.98;8.82;;;15.10;99.90;;;;;;4992065;28;20045;-71
2023/07/27 06:15:57;;;;;;;13.43;9.27;;;15.10;99.90;;;;;;5046573;28;20043;-69
2023/07/27 06:18:23;;;;;;;12.85;9.13;;;15.10;99.90;;;;;;5018479;28;20030;-70
2023/07/27 06:20:49;;;;;;;12.27;9.65;;;15.10;99.90;;;;;;5006608;28;20499;-73
2023/07/27 06:23:14;;;;;;;16.25;10.60;;;15.10;99.90;;;;;;5007842;28;20042;-73
2023/07/27 06:25:45;;;;;;;13.20;9.88;;;15.10;99.90;;;;;;4990016;28;20717;-73
2023/07/27 06:28:11;;;;;;;13.05;9.38;;;15.10;99.90;;;;;;4990595;28;20050;-70
2023/07/27 06:30:38;;;;;;;13.00;10.15;;;15.10;99.90;;;;;;4998767;28;20064;-70
2023/07/27 06:33:05;;;;;;;13.88;9.70;;;15.20;99.90;;;;;;4980650;28;20041;-73
2023/07/27 06:35:31;;;;;;;13.52;10.25;;;15.20;99.90;;;;;;4992455;28;20046;-73
2023/07/27 06:37:56;;;;;;;15.50;10.90;;;15.20;99.90;;;;;;4988910;28;20034;-73
2023/07/27 06:40:22;;;;;;;13.75;10.38;;;15.20;99.90;;;;;;5005728;28;20030;-73
2023/07/27 06:42:48;;;;;;;12.98;9.68;;;15.30;99.90;;;;;;4986432;28;20050;-73
2023/07/27 06:45:13;;;;;;;13.82;9.45;;;15.30;99.90;;;;;;4982969;28;20045;-70
2023/07/27 06:47:39;;;;;;;12.38;9.43;;;15.30;99.90;;;;;;4981796;28;20057;-73
2023/07/27 06:50:05;;;;;;;13.00;9.50;;;15.40;99.90;;;;;;5011138;28;20042;-73
2023/07/27 06:52:31;;;;;;;13.43;10.13;;;15.30;99.90;;;;;;4982142;28;20034;-73
2023/07/27 06:54:56;;;;;;;11.38;9.07;;;15.40;99.90;;;;;;4999168;28;20037;-73
2023/07/27 06:57:25;;;;;;;11.75;8.75;;;15.40;99.90;;;;;;4986850;28;20067;-71
2023/07/27 06:59:50;;;;;;;11.40;8.73;;;15.40;99.90;;;;;;5002472;28;20039;-73
2023/07/27 07:02:16;;;;;;;9.80;7.88;;;15.40;99.90;;;;;;5006839;28;20456;-71
2023/07/27 07:04:43;;;;;;;11.15;8.55;;;15.40;99.90;;;;;;5007288;28;20034;-71
2023/07/27 07:07:09;;;;;;;11.40;8.27;;;15.40;99.90;;;;;;5001352;28;20049;-72
2023/07/27 07:09:35;;;;;;;11.45;8.13;;;15.40;99.90;;;;;;4967166;28;20806;-72
2023/07/27 07:12:05;;;;;;;11.45;8.13;;;15.50;99.90;;;;;;4997719;28;20033;-72
2023/07/27 07:14:31;;;;;;;9.93;7.72;;;15.40;99.90;;;;;;4987228;28;20531;-71
2023/07/27 07:16:58;;;;;;;9.25;7.47;;;15.40;99.90;;;;;;4996118;28;20065;-72
2023/07/27 07:19:24;;;;;;;9.50;6.95;;;15.40;99.90;;;;;;5001522;28;20026;-71
2023/07/27 07:21:49;;;;;;;9.10;7.00;;;15.40;99.90;;;;;;5002362;28;20518;-71
2023/07/27 07:24:15;;;;;;;9.57;7.32;;;15.40;99.90;;;;;;5002116;28;20401;-71
2023/07/27 07:26:41;;;;;;;8.57;6.40;;;15.40;99.90;;;;;;4996538;28;20488;-69
2023/07/27 07:29:07;;;;;;;8.93;6.38;;;15.40;99.90;;;;;;4967054;28;20549;-69
2023/07/27 07:31:33;;;;;;;7.65;6.00;;;15.40;99.90;;;;;;5003784;28;20038;-71
2023/07/27 07:33:59;;;;;;;7.88;6.00;;;15.40;99.90;;;;;;4999631;28;20030;-71
2023/07/27 07:36:25;;;;;;;8.10;5.70;;;15.40;99.90;;;;;;5005996;28;20037;-69
2023/07/27 07:38:51;;;;;;;7.00;5.88;;;15.40;99.90;;;;;;4977743;28;20037;-71
2023/07/27 07:41:17;;;;;;;8.23;5.72;;;15.50;99.90;;;;;;5002066;28;20052;-71
2023/07/27 07:43:42;;;;;;;8.30;6.00;;;15.50;99.90;;;;;;4978569;28;20107;-69
2023/07/27 07:46:12;;;;;;;6.70;5.15;;;15.50;99.90;;;;;;4995926;28;20407;-69
2023/07/27 07:48:38;;;;;;;9.27;5.05;;;15.50;99.90;;;;;;5017078;28;20099;-71
2023/07/27 07:51:09;;;;;;;6.45;5.00;;;15.40;99.90;;;;;;4993016;28;20045;-69
2023/07/27 07:53:35;;;;;;;8.18;4.80;;;15.40;99.90;;;;;;5003964;28;20047;-69
2023/07/27 07:56:01;;;;;;;6.43;5.15;;;15.40;99.90;;;;;;5005595;28;20091;-69
2023/07/27 07:58:26;;;;;;;6.63;4.60;;;15.40;99.90;;;;;;4997400;28;20034;-70
2023/07/27 08:00:52;;;;;;;5.57;4.38;;;15.50;99.90;;;;;;5005825;28;20038;-69
2023/07/27 08:03:17;;;;;;;5.68;4.32;;;15.50;99.90;;;;;;4986707;28;20050;-72
2023/07/27 08:05:43;;;;;;;7.30;4.72;;;15.50;99.90;;;;;;4983774;28;20120;-70
2023/07/27 08:08:09;;;;;;;6.47;4.30;;;15.50;99.90;;;;;;5008962;28;20488;-70
2023/07/27 08:10:35;;;;;;;6.78;4.00;;;15.50;99.90;;;;;;5004095;28;20083;-70
2023/07/27 08:13:00;;;;;;;4.88;3.70;;;15.50;99.90;;;;;;4987171;28;20038;-70
2023/07/27 08:15:26;;;;;;;5.53;3.70;;;15.50;99.90;;;;;;4981975;28;20459;-73
2023/07/27 08:17:51;;;;;;;3.90;3.15;;;15.50;99.90;;;;;;4996841;28;20034;-70
2023/07/27 08:20:17;;;;;;;5.85;3.70;;;15.50;99.90;;;;;;4982548;28;20524;-70
2023/07/27 08:22:43;;;;;;;5.20;3.40;;;15.50;99.90;;;;;;5004952;28;20110;-70
2023/07/27 08:25:09;;;;;;;3.97;2.97;;;15.50;99.90;;;;;;4976743;28;20365;-70
2023/07/27 08:27:34;;;;;;;5.00;3.10;;;15.60;99.90;;;;;;5005243;28;20664;-70
2023/07/27 08:30:01;;;;;;;4.82;3.20;;;15.60;99.90;;;;;;5006496;28;20041;-70
2023/07/27 08:32:26;;;;;;;4.10;3.10;;;15.60;99.90;;;;;;4998855;28;20038;-71
2023/07/27 08:34:52;;;;;;;4.45;3.17;;;15.70;99.90;;;;;;4998674;28;20049;-70
2023/07/27 08:37:18;;;;;;;4.03;2.85;;;15.70;99.90;;;;;;4996841;28;20397;-70
2023/07/27 08:39:43;;;;;;;5.75;3.55;;;15.80;99.90;;;;;;4995565;28;20037;-70
2023/07/27 08:42:14;;;;;;;4.30;2.83;;;15.80;99.90;;;;;;4999389;28;20045;-72
2023/07/27 08:44:43;;;;;;;4.40;3.10;;;15.80;99.90;;;;;;5008980;28;20057;-70
2023/07/27 08:47:10;;;;;;;4.13;2.92;;;15.90;99.90;;;;;;4988172;28;20046;-71
2023/07/27 08:49:37;;;;;;;3.58;2.30;;;15.90;99.90;;;;;;5009749;28;20083;-70
2023/07/27 08:52:03;;;;;;;3.80;2.60;;;15.90;99.90;;;;;;4985972;28;20042;-70
2023/07/27 08:54:30;;;;;;;3.88;2.58;;;16.00;99.90;;;;;;4995459;28;20480;-73
2023/07/27 08:56:55;;;;;;;3.30;2.50;;;16.00;99.90;;;;;;4970926;28;20081;-70
2023/07/27 08:59:24;;;;;;;3.50;2.55;;;16.00;99.90;;;;;;4993849;28;20087;-71
2023/07/27 09:01:50;;;;;;;2.40;2.20;;;16.00;99.90;;;;;;4997485;28;20061;-72
2023/07/27 09:04:16;;;;;;;3.00;2.20;;;16.10;99.90;;;;;;5003518;28;20034;-71
2023/07/27 09:06:44;;;;;;;2.90;2.58;;;16.20;99.90;;;;;;4987006;28;20046;-72
2023/07/27 09:09:25;;;;;;;2.53;2.10;;;16.20;99.90;;;;;;4980081;28;20071;-71
2023/07/27 09:11:52;;;;;;;2.38;2.08;;;16.30;99.90;;;;;;4979798;28;20505;-71
2023/07/27 09:14:19;;;;;;;2.33;2.10;;;16.40;99.90;;;;;;5000417;28;20038;-71
2023/07/27 09:16:46;;;;;;;2.30;2.10;;;16.50;99.90;;;;;;4977367;28;20464;-71
2023/07/27 09:19:12;;;;;;;2.15;1.92;;;16.40;99.90;;;;;;5017444;28;20057;-72
2023/07/27 09:21:44;;;;;;;3.53;2.47;;;16.50;99.90;;;;;;4999958;28;20064;-71
2023/07/27 09:24:14;;;;;;;2.78;2.33;;;16.50;99.90;;;;;;4999784;28;20399;-70
2023/07/27 09:26:45;;;;;;;4.97;2.40;;;16.60;99.90;;;;;;4998398;28;20396;-71
2023/07/27 09:29:12;;;;;;;3.78;2.20;;;16.60;99.90;;;;;;4979000;28;20046;-71
2023/07/27 09:31:49;;;;;;;2.67;2.42;;;16.60;99.90;;;;;;4985366;28;20503;-71
2023/07/27 09:34:16;;;;;;;2.83;2.25;;;16.60;99.90;;;;;;4978480;28;20171;-72
2023/07/27 09:36:42;;;;;;;3.60;2.30;;;16.60;99.90;;;;;;4996273;28;20167;-70
2023/07/27 09:39:09;;;;;;;2.63;2.42;;;16.80;99.90;;;;;;4996427;28;20556;-70
2023/07/27 09:41:35;;;;;;;3.08;2.38;;;16.70;99.90;;;;;;5005388;28;20042;-70
2023/07/27 09:44:02;;;;;;;3.83;2.88;;;16.70;99.90;;;;;;5005482;28;20038;-73
2023/07/27 09:46:29;;;;;;;3.65;2.78;;;16.70;99.90;;;;;;5003792;28;20124;-70
2023/07/27 09:48:59;;;;;;;4.07;2.83;;;16.80;99.90;;;;;;5001005;28;20404;-71
2023/07/27 09:51:29;;;;;;;3.00;2.70;;;16.80;99.90;;;;;;4992265;28;20049;-70
2023/07/27 09:53:55;;;;;;;3.88;3.30;;;16.90;99.90;;;;;;4982548;28;20049;-72
2023/07/27 09:56:22;;;;;;;3.35;2.90;;;17.00;99.90;;;;;;4998592;28;20037;-72
2023/07/27 09:58:48;;;;;;;4.45;3.25;;;17.00;99.90;;;;;;5006341;28;20091;-70
2023/07/27 10:01:14;;;;;;;3.53;3.10;;;17.10;99.90;;;;;;5000900;28;20455;-70
2023/07/27 10:03:40;;;;;;;3.80;3.30;;;17.10;99.90;;;;;;4983397;28;20038;-70
2023/07/27 10:06:06;;;;;;;5.47;3.78;;;17.10;99.90;;;;;;4996510;28;20392;-73
2023/07/27 10:08:33;;;;;;;5.55;3.22;;;17.10;99.90;;;;;;4994460;28;20038;-70
2023/07/27 10:11:00;;;;;;;3.70;3.38;;;16.90;99.90;;;;;;4999615;28;20143;-71
2023/07/27 10:13:26;;;;;;;4.20;3.55;;;17.20;99.90;;;;;;4976878;28;20216;-73
2023/07/27 10:15:53;;;;;;;4.25;3.78;;;17.30;99.90;;;;;;4973808;28;20049;-71
2023/07/27 10:18:27;;;;;;;4.50;3.75;;;17.30;99.90;;;;;;5001210;28;20022;-70
2023/07/27 10:21:20;;;;;;;5.53;3.60;;;17.30;99.90;;;;;;4991675;28;20034;-70
2023/07/27 10:24:03;;;;;;;4.72;3.85;;;17.30;99.90;;;;;;4972166;28;20179;-70
2023/07/27 10:26:42;;;;;;;4.78;3.90;;;17.30;99.90;;;;;;5003241;22;20038;-69
2023/07/27 10:29:16;;;;;;;4.05;3.65;;;17.30;99.90;;;;;;4974511;28;20452;-72
2023/07/27 10:31:44;;;;;;;3.97;3.58;;;17.30;99.90;;;;;;4958785;28;20074;-71
2023/07/27 10:34:17;;;;;;;5.40;3.30;;;17.30;99.90;;;;;;4978412;28;20396;-69
2023/07/27 10:36:56;;;;;;;4.63;3.20;;;17.30;99.90;;;;;;4964613;28;20046;-69
2023/07/27 10:39:29;;;;;;;3.85;3.35;;;17.40;99.90;;;;;;4956804;28;20046;-69
2023/07/27 10:42:01;;;;;;;5.53;3.65;;;17.30;99.90;;;;;;4976522;28;20053;-70
2023/07/27 10:44:47;;;;;;;3.80;3.20;;;17.30;99.90;;;;;;4966898;28;20038;-70
2023/07/27 10:47:21;;;;;;;5.88;3.40;;;17.30;99.90;;;;;;4983626;28;20036;-70
2023/07/27 10:49:50;;;;;;;4.10;3.17;;;17.30;99.90;;;;;;4949108;28;20457;-70
2023/07/27 10:52:21;;;;;;;3.72;3.35;;;17.30;99.90;;;;;;4948300;28;20058;-70
2023/07/27 10:54:48;;;;;;;5.07;3.50;;;17.30;99.90;;;;;;4989254;28;20043;-70
2023/07/27 10:57:15;;;;;;;4.28;3.65;;;17.30;99.90;;;;;;4961009;28;20045;-71
2023/07/27 10:59:49;;;;;;;4.38;3.50;;;17.40;99.90;;;;;;4958160;28;20054;-70
2023/07/27 11:02:23;;;;;;;3.90;3.45;;;17.40;99.90;;;;;;4966391;28;20042;-70
2023/07/27 11:04:50;;;;;;;4.00;3.60;;;17.50;99.90;;;;;;4956093;28;20081;-70
2023/07/27 11:07:30;;;;;;;4.55;4.00;;;17.60;99.90;;;;;;4977450;28;20042;-70
2023/07/27 11:09:56;;;;;;;4.32;3.92;;;17.60;99.90;;;;;;4965877;28;20476;-70
2023/07/27 11:12:22;;;;;;;8.43;4.13;;;17.70;99.90;;;;;;4959093;28;20084;-70
2023/07/27 11:14:48;;;;;;;4.47;3.97;;;17.70;99.90;;;;;;4961166;28;20457;-70
2023/07/27 11:17:14;;;;;;;4.55;4.15;;;17.80;99.90;;;;;;4976676;28;20074;-70
2023/07/27 11:19:41;;;;;;;7.20;3.60;;;17.90;99.90;;;;;;4939737;28;20027;-70
2023/07/27 11:22:08;;;;;;;6.82;4.22;;;18.00;99.90;;;;;;4968618;28;20030;-71
2023/07/27 11:24:34;;;;;;;4.50;4.10;;;18.10;99.90;;;;;;4956831;28;20037;-72
2023/07/27 11:27:00;;;;;;;4.50;4.00;;;18.10;99.90;;;;;;4962066;28;20094;-70
2023/07/27 11:29:26;;;;;;;5.13;4.10;;;18.20;99.90;;;;;;4977542;28;20117;-71
2023/07/27 11:31:58;;;;;;;4.60;3.83;;;18.20;99.90;;;;;;4966036;28;20061;-69
2023/07/27 11:34:26;;;;;;;4.50;3.95;;;18.40;99.90;;;;;;4956061;28;20045;-71
2023/07/27 11:36:54;;;;;;;4.45;3.83;;;18.50;99.90;;;;;;4958678;28;20345;-71
2023/07/27 11:39:20;;;;;;;4.10;3.67;;;18.50;99.90;;;;;;4962289;28;20068;-69
2023/07/27 11:41:48;;;;;;;3.58;3.25;;;18.50;99.90;;;;;;4975786;28;20267;-69
2023/07/27 11:44:23;;;;;;;5.05;3.08;;;18.60;99.90;;;;;;4989601;28;20043;-70
2023/07/27 11:46:52;;;;;;;3.45;3.15;;;18.70;99.90;;;;;;4982603;28;20038;-69
2023/07/27 11:49:21;;;;;;;3.55;2.80;;;18.80;99.90;;;;;;4950809;28;20778;-71
2023/07/27 11:51:47;;;;;;;3.50;2.50;;;18.80;99.90;;;;;;4953359;28;20084;-69
2023/07/27 11:54:27;;;;;;;3.55;2.58;;;18.90;99.90;;;;;;4970784;28;20295;-69
2023/07/27 11:56:54;;;;;;;3.35;2.28;;;18.90;99.90;;;;;;4977350;28;20043;-69
2023/07/27 11:59:21;;;;;;;3.42;2.10;;;18.90;99.90;;;;;;4977015;28;20366;-71
2023/07/27 12:01:50;;;;;;;3.42;2.58;;;18.80;99.90;;;;;;4986740;28;20034;-70
2023/07/27 12:04:20;;;;;;;2.35;2.13;;;18.90;99.90;;;;;;4964572;28;20054;-70
2023/07/27 12:06:46;;;;;;;2.90;2.42;;;18.80;99.90;;;;;;4953937;28;20051;-71
2023/07/27 12:09:12;;;;;;;4.18;2.20;;;18.80;99.90;;;;;;4968134;28;20034;-70
2023/07/27 12:11:38;;;;;;;2.63;2.13;;;18.80;99.90;;;;;;4951382;28;20519;-70
2023/07/27 12:14:08;;;;;;;2.20;2.10;;;18.80;99.90;;;;;;4985251;28;20045;-70
2023/07/27 12:16:45;;;;;;;2.38;2.17;;;18.80;99.90;;;;;;4998529;28;20048;-70
2023/07/27 12:19:11;;;;;;;2.88;2.08;;;18.80;99.90;;;;;;4947884;28;20046;-71
2023/07/27 12:21:40;;;;;;;2.30;2.10;;;18.80;99.90;;;;;;4991724;28;20565;-68
2023/07/27 12:24:10;;;;;;;2.22;2.03;;;18.70;99.90;;;;;;4972529;28;20454;-71
2023/07/27 12:26:38;;;;;;;2.33;2.13;;;18.70;99.90;;;;;;4961036;28;20072;-69
2023/07/27 12:29:04;;;;;;;3.05;2.38;;;18.70;99.90;;;;;;4961362;28;20438;-70
2023/07/27 12:31:31;;;;;;;4.32;2.78;;;18.60;99.90;;;;;;4949618;28;20050;-72
2023/07/27 12:33:56;;;;;;;4.63;2.88;;;18.70;99.90;;;;;;4960386;28;20046;-70
2023/07/27 12:36:22;;;;;;;3.92;2.80;;;18.70;99.90;;;;;;4969851;28;20542;-70
2023/07/27 12:38:48;;;;;;;4.40;2.33;;;18.70;99.90;;;;;;4960421;28;20045;-72
2023/07/27 12:41:13;;;;;;;4.43;2.80;;;18.70;99.90;;;;;;4953929;28;20038;-71
2023/07/27 12:43:40;;;;;;;3.25;2.60;;;18.80;99.90;;;;;;4954127;28;20035;-68
2023/07/27 12:46:06;;;;;;;3.67;2.67;;;18.80;99.90;;;;;;4987975;28;20125;-70